sensor_id;sensor_type;location;lat;lon;timestamp;pressure;altitude;pressure_sealevel;temperature;humidity
49627;BME280;35527;54.616;39.786;2022-07-29T00:00:42;99789.97;;;19.53;100.00
49627;BME280;35527;54.616;39.786;2022-07-29T00:03:49;99789.47;;;19.48;100.00
49627;BME280;35527;54.616;39.786;2022-07-29T00:06:52;99780.19;;;19.44;100.00
49627;BME280;35527;54.616;39.786;2022-07-29T00:09:56;99797.59;;;19.56;100.00
49627;BME280;35527;54.616;39.786;2022-07-29T00:13:00;99796.19;;;19.64;100.00
49627;BME280;35527;54.616;39.786;2022-07-29T00:16:06;99775.66;;;19.57;100.00
49627;BME280;35527;54.616;39.786;2022-07-29T00:19:09;99778.63;;;19.53;100.00
49627;BME280;35527;54.616;39.786;2022-07-29T00:22:11;99786.03;;;19.59;100.00
49627;BME280;35527;54.616;39.786;2022-07-29T00:25:15;99774.34;;;19.41;100.00
49627;BME280;35527;54.616;39.786;2022-07-29T00:28:20;99804.88;;;19.53;100.00
49627;BME280;35527;54.616;39.786;2022-07-29T00:31:23;99793.41;;;19.54;100.00
49627;BME280;35527;54.616;39.786;2022-07-29T00:34:30;99810.72;;;19.56;100.00
49627;BME280;35527;54.616;39.786;2022-07-29T00:37:52;99799.53;;;19.54;100.00
49627;BME280;35527;54.616;39.786;2022-07-29T00:40:57;99808.34;;;19.53;100.00
49627;BME280;35527;54.616;39.786;2022-07-29T00:44:00;99790.34;;;19.49;100.00
49627;BME280;35527;54.616;39.786;2022-07-29T00:47:03;99808.22;;;19.44;100.00
49627;BME280;35527;54.616;39.786;2022-07-29T00:50:08;99803.31;;;19.39;100.00
49627;BME280;35527;54.616;39.786;2022-07-29T00:53:16;99790.16;;;19.28;100.00
49627;BME280;35527;54.616;39.786;2022-07-29T00:56:19;99813.06;;;19.37;100.00
49627;BME280;35527;54.616;39.786;2022-07-29T00:59:22;99798.03;;;19.28;100.00
49627;BME280;35527;54.616;39.786;2022-07-29T01:02:26;99801.13;;;19.22;100.00
49627;BME280;35527;54.616;39.786;2022-07-29T01:05:31;99810.66;;;19.23;100.00
49627;BME280;35527;54.616;39.786;2022-07-29T01:08:34;99798.59;;;19.09;100.00
49627;BME280;35527;54.616;39.786;2022-07-29T01:11:38;99801.31;;;19.07;100.00
49627;BME280;35527;54.616;39.786;2022-07-29T01:14:44;99788.53;;;19.03;100.00
49627;BME280;35527;54.616;39.786;2022-07-29T01:17:59;99818.88;;;19.18;100.00
49627;BME280;35527;54.616;39.786;2022-07-29T01:24:39;99818.53;;;19.11;100.00
49627;BME280;35527;54.616;39.786;2022-07-29T01:30:56;99824.56;;;19.01;100.00
49627;BME280;35527;54.616;39.786;2022-07-29T01:34:06;99829.41;;;18.94;100.00
49627;BME280;35527;54.616;39.786;2022-07-29T01:37:22;99780.13;;;18.62;100.00
49627;BME280;35527;54.616;39.786;2022-07-29T01:40:38;99828.19;;;18.87;100.00
49627;BME280;35527;54.616;39.786;2022-07-29T01:43:57;99801.50;;;18.69;100.00
49627;BME280;35527;54.616;39.786;2022-07-29T01:47:08;99834.72;;;18.81;100.00
49627;BME280;35527;54.616;39.786;2022-07-29T01:50:16;99805.91;;;18.68;100.00
49627;BME280;35527;54.616;39.786;2022-07-29T01:53:29;99809.31;;;18.58;100.00
49627;BME280;35527;54.616;39.786;2022-07-29T01:56:36;99800.31;;;18.49;100.00
49627;BME280;35527;54.616;39.786;2022-07-29T01:59:43;99812.16;;;18.55;100.00
49627;BME280;35527;54.616;39.786;2022-07-29T02:02:49;99785.22;;;18.29;100.00
49627;BME280;35527;54.616;39.786;2022-07-29T02:05:56;99802.16;;;18.36;100.00
49627;BME280;35527;54.616;39.786;2022-07-29T02:09:00;99792.66;;;18.22;100.00
49627;BME280;35527;54.616;39.786;2022-07-29T02:12:06;99784.41;;;18.15;100.00
49627;BME280;35527;54.616;39.786;2022-07-29T02:15:14;99775.28;;;18.08;100.00
49627;BME280;35527;54.616;39.786;2022-07-29T02:18:26;99788.16;;;18.11;100.00
49627;BME280;35527;54.616;39.786;2022-07-29T02:21:31;99806.41;;;18.13;100.00
49627;BME280;35527;54.616;39.786;2022-07-29T02:24:37;99804.22;;;18.07;100.00
49627;BME280;35527;54.616;39.786;2022-07-29T02:27:47;99819.28;;;18.16;100.00
49627;BME280;35527;54.616;39.786;2022-07-29T02:30:53;99811.47;;;18.03;100.00
49627;BME280;35527;54.616;39.786;2022-07-29T02:34:06;99840.75;;;18.21;100.00
49627;BME280;35527;54.616;39.786;2022-07-29T02:37:11;99811.72;;;18.11;100.00
49627;BME280;35527;54.616;39.786;2022-07-29T02:40:16;99843.16;;;18.24;100.00
49627;BME280;35527;54.616;39.786;2022-07-29T02:43:21;99857.91;;;18.25;100.00
49627;BME280;35527;54.616;39.786;2022-07-29T02:46:31;99848.41;;;18.24;100.00
49627;BME280;35527;54.616;39.786;2022-07-29T02:49:41;99862.25;;;18.26;100.00
49627;BME280;35527;54.616;39.786;2022-07-29T02:53:09;99844.13;;;18.23;100.00
49627;BME280;35527;54.616;39.786;2022-07-29T02:56:17;99830.44;;;18.31;100.00
49627;BME280;35527;54.616;39.786;2022-07-29T02:59:26;99837.47;;;18.30;100.00
49627;BME280;35527;54.616;39.786;2022-07-29T03:02:33;99845.84;;;18.35;100.00
49627;BME280;35527;54.616;39.786;2022-07-29T03:05:37;99841.88;;;18.30;100.00
49627;BME280;35527;54.616;39.786;2022-07-29T03:08:41;99863.25;;;18.36;100.00
49627;BME280;35527;54.616;39.786;2022-07-29T03:11:50;99849.38;;;18.47;100.00
49627;BME280;35527;54.616;39.786;2022-07-29T03:14:54;99860.78;;;18.59;100.00
49627;BME280;35527;54.616;39.786;2022-07-29T03:17:58;99857.50;;;18.68;100.00
49627;BME280;35527;54.616;39.786;2022-07-29T03:21:05;99855.31;;;18.62;100.00
49627;BME280;35527;54.616;39.786;2022-07-29T03:24:28;99877.63;;;18.67;100.00
49627;BME280;35527;54.616;39.786;2022-07-29T03:27:31;99871.03;;;18.62;100.00
49627;BME280;35527;54.616;39.786;2022-07-29T03:30:38;99866.16;;;18.57;100.00
49627;BME280;35527;54.616;39.786;2022-07-29T03:33:40;99837.91;;;18.61;100.00
49627;BME280;35527;54.616;39.786;2022-07-29T03:36:45;99858.88;;;18.74;100.00
49627;BME280;35527;54.616;39.786;2022-07-29T03:40:26;99841.63;;;18.82;100.00
49627;BME280;35527;54.616;39.786;2022-07-29T03:43:32;99855.13;;;19.13;100.00
49627;BME280;35527;54.616;39.786;2022-07-29T03:46:37;99845.88;;;20.34;100.00
49627;BME280;35527;54.616;39.786;2022-07-29T03:49:46;99827.41;;;20.68;100.00
49627;BME280;35527;54.616;39.786;2022-07-29T03:52:51;99833.84;;;21.40;100.00
49627;BME280;35527;54.616;39.786;2022-07-29T03:55:58;99839.50;;;22.77;98.57
49627;BME280;35527;54.616;39.786;2022-07-29T03:59:05;99846.00;;;24.45;83.92
49627;BME280;35527;54.616;39.786;2022-07-29T04:02:11;99819.66;;;24.71;78.93
49627;BME280;35527;54.616;39.786;2022-07-29T04:05:16;99849.63;;;25.25;75.48
49627;BME280;35527;54.616;39.786;2022-07-29T04:08:19;99848.13;;;25.75;71.15
49627;BME280;35527;54.616;39.786;2022-07-29T04:11:50;99844.75;;;26.25;67.41
49627;BME280;35527;54.616;39.786;2022-07-29T04:14:54;99834.44;;;26.81;60.83
49627;BME280;35527;54.616;39.786;2022-07-29T04:17:59;99835.47;;;26.80;58.73
49627;BME280;35527;54.616;39.786;2022-07-29T04:21:02;99854.94;;;26.46;61.37
49627;BME280;35527;54.616;39.786;2022-07-29T04:24:07;99847.47;;;26.49;61.09
49627;BME280;35527;54.616;39.786;2022-07-29T04:27:11;99863.09;;;26.10;64.13
49627;BME280;35527;54.616;39.786;2022-07-29T04:30:14;99865.09;;;25.56;67.27
49627;BME280;35527;54.616;39.786;2022-07-29T04:33:17;99838.00;;;24.55;72.11
49627;BME280;35527;54.616;39.786;2022-07-29T04:36:20;99863.69;;;24.44;71.60
49627;BME280;35527;54.616;39.786;2022-07-29T04:39:24;99875.28;;;24.34;73.10
49627;BME280;35527;54.616;39.786;2022-07-29T04:42:31;99864.44;;;24.82;69.90
49627;BME280;35527;54.616;39.786;2022-07-29T04:45:35;99849.22;;;25.64;64.48
49627;BME280;35527;54.616;39.786;2022-07-29T04:48:39;99868.69;;;25.29;67.12
49627;BME280;35527;54.616;39.786;2022-07-29T04:51:46;99859.13;;;24.82;68.46
49627;BME280;35527;54.616;39.786;2022-07-29T04:54:50;99875.34;;;23.67;76.69
49627;BME280;35527;54.616;39.786;2022-07-29T04:57:53;99873.69;;;25.14;70.90
49627;BME280;35527;54.616;39.786;2022-07-29T05:00:58;99886.78;;;27.05;57.46
49627;BME280;35527;54.616;39.786;2022-07-29T05:04:02;99894.25;;;27.75;53.25
49627;BME280;35527;54.616;39.786;2022-07-29T05:07:04;99881.31;;;26.90;54.90
49627;BME280;35527;54.616;39.786;2022-07-29T05:10:10;99885.13;;;27.04;52.59
49627;BME280;35527;54.616;39.786;2022-07-29T05:13:14;99881.78;;;27.92;50.14
49627;BME280;35527;54.616;39.786;2022-07-29T05:16:18;99878.28;;;29.01;46.46
49627;BME280;35527;54.616;39.786;2022-07-29T05:19:25;99876.69;;;29.38;45.32
49627;BME280;35527;54.616;39.786;2022-07-29T05:22:30;99883.09;;;29.06;43.50
49627;BME280;35527;54.616;39.786;2022-07-29T05:25:32;99907.09;;;29.06;43.29
49627;BME280;35527;54.616;39.786;2022-07-29T05:28:38;99889.63;;;27.93;46.24
49627;BME280;35527;54.616;39.786;2022-07-29T05:31:41;99891.75;;;27.98;46.24
49627;BME280;35527;54.616;39.786;2022-07-29T05:34:45;99877.09;;;28.49;45.72
49627;BME280;35527;54.616;39.786;2022-07-29T05:37:49;99907.38;;;28.57;45.38
49627;BME280;35527;54.616;39.786;2022-07-29T05:40:52;99902.81;;;28.18;46.97
49627;BME280;35527;54.616;39.786;2022-07-29T05:43:55;99888.63;;;28.34;46.39
49627;BME280;35527;54.616;39.786;2022-07-29T05:46:59;99887.44;;;28.75;44.96
49627;BME280;35527;54.616;39.786;2022-07-29T05:50:03;99892.88;;;29.13;43.76
49627;BME280;35527;54.616;39.786;2022-07-29T05:53:10;99892.13;;;28.42;45.11
49627;BME280;35527;54.616;39.786;2022-07-29T05:56:13;99901.94;;;28.42;45.33
49627;BME280;35527;54.616;39.786;2022-07-29T05:59:15;99890.06;;;28.52;45.52
49627;BME280;35527;54.616;39.786;2022-07-29T06:02:19;99885.06;;;30.02;41.72
49627;BME280;35527;54.616;39.786;2022-07-29T06:05:24;99895.94;;;29.48;43.28
49627;BME280;35527;54.616;39.786;2022-07-29T06:08:27;99890.66;;;29.78;41.55
49627;BME280;35527;54.616;39.786;2022-07-29T06:11:31;99881.31;;;29.21;41.95
49627;BME280;35527;54.616;39.786;2022-07-29T06:14:39;99862.53;;;29.52;41.48
49627;BME280;35527;54.616;39.786;2022-07-29T06:17:44;99896.38;;;29.75;41.83
49627;BME280;35527;54.616;39.786;2022-07-29T06:20:48;99900.13;;;30.55;39.97
49627;BME280;35527;54.616;39.786;2022-07-29T06:24:15;99914.69;;;29.93;41.14
49627;BME280;35527;54.616;39.786;2022-07-29T06:27:19;99910.91;;;28.80;43.20
49627;BME280;35527;54.616;39.786;2022-07-29T06:30:24;99909.25;;;27.68;46.44
49627;BME280;35527;54.616;39.786;2022-07-29T06:33:28;99909.19;;;28.08;46.02
49627;BME280;35527;54.616;39.786;2022-07-29T06:36:36;99899.63;;;26.50;48.96
49627;BME280;35527;54.616;39.786;2022-07-29T06:39:40;99913.06;;;27.32;48.64
49627;BME280;35527;54.616;39.786;2022-07-29T06:43:11;99923.75;;;28.77;44.76
49627;BME280;35527;54.616;39.786;2022-07-29T06:46:16;99897.50;;;28.18;45.35
49627;BME280;35527;54.616;39.786;2022-07-29T06:49:23;99894.38;;;26.33;50.20
49627;BME280;35527;54.616;39.786;2022-07-29T06:52:27;99905.84;;;26.76;50.91
49627;BME280;35527;54.616;39.786;2022-07-29T06:55:32;99904.81;;;29.40;43.25
49627;BME280;35527;54.616;39.786;2022-07-29T06:58:35;99916.53;;;29.77;41.67
49627;BME280;35527;54.616;39.786;2022-07-29T07:01:42;99921.94;;;29.00;42.81
49627;BME280;35527;54.616;39.786;2022-07-29T07:04:45;99902.44;;;29.46;42.52
49627;BME280;35527;54.616;39.786;2022-07-29T07:07:51;99897.94;;;29.84;41.90
49627;BME280;35527;54.616;39.786;2022-07-29T07:10:54;99893.97;;;29.80;41.96
49627;BME280;35527;54.616;39.786;2022-07-29T07:13:57;99896.91;;;29.47;41.85
49627;BME280;35527;54.616;39.786;2022-07-29T07:17:03;99930.63;;;28.63;43.97
49627;BME280;35527;54.616;39.786;2022-07-29T07:20:10;99900.75;;;28.44;43.88
49627;BME280;35527;54.616;39.786;2022-07-29T07:23:14;99889.50;;;28.65;42.58
49627;BME280;35527;54.616;39.786;2022-07-29T07:26:19;99894.25;;;29.47;40.56
49627;BME280;35527;54.616;39.786;2022-07-29T07:29:22;99904.03;;;31.10;38.70
49627;BME280;35527;54.616;39.786;2022-07-29T07:32:29;99914.53;;;30.75;37.90
49627;BME280;35527;54.616;39.786;2022-07-29T07:35:33;99909.31;;;29.63;39.75
49627;BME280;35527;54.616;39.786;2022-07-29T07:38:38;99904.22;;;28.53;41.47
49627;BME280;35527;54.616;39.786;2022-07-29T07:41:40;99919.72;;;27.20;44.90
49627;BME280;35527;54.616;39.786;2022-07-29T07:44:47;99923.13;;;26.45;47.08
49627;BME280;35527;54.616;39.786;2022-07-29T07:48:06;99910.81;;;26.79;45.82
49627;BME280;35527;54.616;39.786;2022-07-29T07:51:11;99903.84;;;26.78;45.13
49627;BME280;35527;54.616;39.786;2022-07-29T07:54:16;99929.41;;;28.34;41.95
49627;BME280;35527;54.616;39.786;2022-07-29T07:57:20;99921.44;;;29.28;38.95
49627;BME280;35527;54.616;39.786;2022-07-29T08:00:23;99934.66;;;27.95;41.25
49627;BME280;35527;54.616;39.786;2022-07-29T08:03:32;99902.09;;;27.68;42.00
49627;BME280;35527;54.616;39.786;2022-07-29T08:06:36;99927.81;;;29.41;38.31
49627;BME280;35527;54.616;39.786;2022-07-29T08:09:41;99913.97;;;29.61;37.59
49627;BME280;35527;54.616;39.786;2022-07-29T08:12:44;99922.06;;;30.65;36.02
49627;BME280;35527;54.616;39.786;2022-07-29T08:15:49;99914.47;;;31.48;33.71
49627;BME280;35527;54.616;39.786;2022-07-29T08:19:00;99916.13;;;31.27;33.58
49627;BME280;35527;54.616;39.786;2022-07-29T08:22:05;99916.72;;;30.50;34.60
49627;BME280;35527;54.616;39.786;2022-07-29T08:25:07;99954.34;;;30.85;34.73
49627;BME280;35527;54.616;39.786;2022-07-29T08:28:11;99945.06;;;30.66;34.35
49627;BME280;35527;54.616;39.786;2022-07-29T08:31:15;99948.25;;;30.40;34.87
49627;BME280;35527;54.616;39.786;2022-07-29T08:34:27;99942.69;;;29.82;35.63
49627;BME280;35527;54.616;39.786;2022-07-29T08:37:32;99927.13;;;30.60;34.54
49627;BME280;35527;54.616;39.786;2022-07-29T08:40:36;99931.94;;;31.44;32.84
49627;BME280;35527;54.616;39.786;2022-07-29T08:43:40;99948.03;;;31.29;32.38
49627;BME280;35527;54.616;39.786;2022-07-29T08:46:48;99944.03;;;30.82;33.34
49627;BME280;35527;54.616;39.786;2022-07-29T08:49:53;99955.28;;;30.03;34.70
49627;BME280;35527;54.616;39.786;2022-07-29T08:52:56;99951.28;;;29.23;36.46
49627;BME280;35527;54.616;39.786;2022-07-29T08:56:01;99954.47;;;29.64;35.34
49627;BME280;35527;54.616;39.786;2022-07-29T08:59:09;99905.75;;;30.15;34.00
49627;BME280;35527;54.616;39.786;2022-07-29T09:02:21;99946.72;;;30.67;32.66
49627;BME280;35527;54.616;39.786;2022-07-29T09:05:26;99948.63;;;30.73;31.28
49627;BME280;35527;54.616;39.786;2022-07-29T09:08:34;99953.13;;;30.51;31.86
49627;BME280;35527;54.616;39.786;2022-07-29T09:11:42;99938.53;;;30.09;32.52
49627;BME280;35527;54.616;39.786;2022-07-29T09:14:45;99937.88;;;29.77;32.88
49627;BME280;35527;54.616;39.786;2022-07-29T09:17:49;99937.13;;;30.36;31.90
49627;BME280;35527;54.616;39.786;2022-07-29T09:20:53;99941.16;;;30.32;31.53
49627;BME280;35527;54.616;39.786;2022-07-29T09:24:16;99936.88;;;29.32;32.98
49627;BME280;35527;54.616;39.786;2022-07-29T09:27:21;99930.28;;;28.97;34.20
49627;BME280;35527;54.616;39.786;2022-07-29T09:30:26;99931.47;;;28.63;33.89
49627;BME280;35527;54.616;39.786;2022-07-29T09:33:33;99936.91;;;29.01;32.96
49627;BME280;35527;54.616;39.786;2022-07-29T09:36:47;99928.88;;;28.47;34.11
49627;BME280;35527;54.616;39.786;2022-07-29T09:39:50;99928.28;;;28.20;34.67
49627;BME280;35527;54.616;39.786;2022-07-29T09:42:55;99959.97;;;28.55;33.50
49627;BME280;35527;54.616;39.786;2022-07-29T09:46:12;99946.13;;;27.95;35.16
49627;BME280;35527;54.616;39.786;2022-07-29T09:49:20;99956.94;;;27.77;35.47
49627;BME280;35527;54.616;39.786;2022-07-29T09:52:45;99932.09;;;28.26;33.88
49627;BME280;35527;54.616;39.786;2022-07-29T09:55:51;99944.84;;;28.47;34.54
49627;BME280;35527;54.616;39.786;2022-07-29T09:59:08;99942.28;;;28.06;35.47
49627;BME280;35527;54.616;39.786;2022-07-29T10:02:14;99941.25;;;28.23;35.82
49627;BME280;35527;54.616;39.786;2022-07-29T10:05:26;99934.16;;;28.07;34.87
49627;BME280;35527;54.616;39.786;2022-07-29T10:08:32;99949.06;;;28.25;35.04
49627;BME280;35527;54.616;39.786;2022-07-29T10:11:35;99924.38;;;27.43;36.86
49627;BME280;35527;54.616;39.786;2022-07-29T10:14:42;99909.88;;;27.12;36.87
49627;BME280;35527;54.616;39.786;2022-07-29T10:17:46;99930.38;;;27.36;37.32
49627;BME280;35527;54.616;39.786;2022-07-29T10:20:52;99941.16;;;27.43;36.60
49627;BME280;35527;54.616;39.786;2022-07-29T10:23:56;99942.84;;;27.85;35.54
49627;BME280;35527;54.616;39.786;2022-07-29T10:27:04;99911.59;;;27.79;34.35
49627;BME280;35527;54.616;39.786;2022-07-29T10:30:08;99904.34;;;28.04;34.19
49627;BME280;35527;54.616;39.786;2022-07-29T10:40:17;99919.38;;;27.89;34.11
49627;BME280;35527;54.616;39.786;2022-07-29T10:43:45;99938.00;;;27.89;34.44
49627;BME280;35527;54.616;39.786;2022-07-29T10:46:49;99922.38;;;27.45;35.27
49627;BME280;35527;54.616;39.786;2022-07-29T10:49:56;99917.19;;;27.10;36.51
49627;BME280;35527;54.616;39.786;2022-07-29T10:53:01;99924.69;;;26.56;36.77
49627;BME280;35527;54.616;39.786;2022-07-29T10:56:03;99933.09;;;26.94;35.18
49627;BME280;35527;54.616;39.786;2022-07-29T11:05:55;99927.13;;;27.00;34.22
49627;BME280;35527;54.616;39.786;2022-07-29T11:09:17;99933.34;;;27.25;34.46
49627;BME280;35527;54.616;39.786;2022-07-29T11:15:57;99916.06;;;27.62;33.56
49627;BME280;35527;54.616;39.786;2022-07-29T11:22:35;99941.00;;;27.53;33.22
49627;BME280;35527;54.616;39.786;2022-07-29T11:25:40;99948.28;;;27.75;33.00
49627;BME280;35527;54.616;39.786;2022-07-29T11:32:08;99917.56;;;27.40;34.59
49627;BME280;35527;54.616;39.786;2022-07-29T11:35:18;99933.19;;;27.59;35.08
49627;BME280;35527;54.616;39.786;2022-07-29T11:38:27;99952.88;;;27.08;35.68
49627;BME280;35527;54.616;39.786;2022-07-29T11:41:31;99957.00;;;26.94;35.92
49627;BME280;35527;54.616;39.786;2022-07-29T11:44:59;99956.25;;;27.18;35.44
49627;BME280;35527;54.616;39.786;2022-07-29T11:48:04;99959.44;;;27.22;35.25
49627;BME280;35527;54.616;39.786;2022-07-29T11:51:10;99964.22;;;27.26;35.71
49627;BME280;35527;54.616;39.786;2022-07-29T11:54:17;99949.41;;;27.15;34.89
49627;BME280;35527;54.616;39.786;2022-07-29T11:57:27;99941.06;;;26.94;35.50
49627;BME280;35527;54.616;39.786;2022-07-29T12:00:39;99957.91;;;26.34;36.22
49627;BME280;35527;54.616;39.786;2022-07-29T12:03:42;99946.81;;;26.04;36.63
49627;BME280;35527;54.616;39.786;2022-07-29T12:06:51;99949.41;;;25.96;36.84
49627;BME280;35527;54.616;39.786;2022-07-29T12:09:57;99940.88;;;26.11;36.86
49627;BME280;35527;54.616;39.786;2022-07-29T12:13:00;99952.81;;;26.15;36.48
49627;BME280;35527;54.616;39.786;2022-07-29T12:16:03;99958.31;;;26.47;36.10
49627;BME280;35527;54.616;39.786;2022-07-29T12:19:06;99960.09;;;26.73;35.20
49627;BME280;35527;54.616;39.786;2022-07-29T12:22:11;99969.66;;;26.58;35.45
49627;BME280;35527;54.616;39.786;2022-07-29T12:25:14;99960.56;;;26.68;35.21
49627;BME280;35527;54.616;39.786;2022-07-29T12:28:37;99938.69;;;26.74;35.51
49627;BME280;35527;54.616;39.786;2022-07-29T12:32:06;99937.16;;;26.56;35.07
49627;BME280;35527;54.616;39.786;2022-07-29T12:35:15;99948.00;;;26.79;35.24
49627;BME280;35527;54.616;39.786;2022-07-29T12:38:19;99959.19;;;27.07;34.75
49627;BME280;35527;54.616;39.786;2022-07-29T12:41:23;99961.44;;;26.77;34.81
49627;BME280;35527;54.616;39.786;2022-07-29T12:44:51;99978.25;;;26.94;34.71
49627;BME280;35527;54.616;39.786;2022-07-29T12:47:55;99974.94;;;27.00;34.27
49627;BME280;35527;54.616;39.786;2022-07-29T12:51:00;99941.19;;;26.76;35.09
49627;BME280;35527;54.616;39.786;2022-07-29T12:54:11;99947.84;;;26.46;34.94
49627;BME280;35527;54.616;39.786;2022-07-29T12:57:15;99957.03;;;26.25;35.97
49627;BME280;35527;54.616;39.786;2022-07-29T13:00:23;99962.59;;;26.14;36.52
49627;BME280;35527;54.616;39.786;2022-07-29T13:03:28;99956.13;;;26.43;36.03
49627;BME280;35527;54.616;39.786;2022-07-29T13:09:47;99944.81;;;26.06;36.12
49627;BME280;35527;54.616;39.786;2022-07-29T13:13:22;99960.47;;;25.92;35.65
49627;BME280;35527;54.616;39.786;2022-07-29T13:16:25;99961.84;;;25.96;35.52
49627;BME280;35527;54.616;39.786;2022-07-29T13:22:51;99969.53;;;26.07;35.36
49627;BME280;35527;54.616;39.786;2022-07-29T13:26:05;99959.50;;;25.93;36.12
49627;BME280;35527;54.616;39.786;2022-07-29T13:29:08;99954.78;;;25.87;36.13
49627;BME280;35527;54.616;39.786;2022-07-29T13:32:12;99967.59;;;25.91;36.48
49627;BME280;35527;54.616;39.786;2022-07-29T13:35:19;99966.50;;;26.02;36.34
49627;BME280;35527;54.616;39.786;2022-07-29T13:38:24;99973.03;;;25.90;36.96
49627;BME280;35527;54.616;39.786;2022-07-29T13:41:26;99965.16;;;25.80;37.58
49627;BME280;35527;54.616;39.786;2022-07-29T13:44:30;99949.22;;;25.54;37.15
49627;BME280;35527;54.616;39.786;2022-07-29T13:47:34;99952.31;;;25.67;36.91
49627;BME280;35527;54.616;39.786;2022-07-29T13:50:40;99963.94;;;25.74;37.63
49627;BME280;35527;54.616;39.786;2022-07-29T13:53:42;99968.50;;;25.82;37.46
49627;BME280;35527;54.616;39.786;2022-07-29T13:56:49;99948.53;;;25.34;38.25
49627;BME280;35527;54.616;39.786;2022-07-29T13:59:52;99935.72;;;25.11;37.41
49627;BME280;35527;54.616;39.786;2022-07-29T14:02:59;99968.19;;;25.13;37.38
49627;BME280;35527;54.616;39.786;2022-07-29T14:06:26;99962.66;;;25.07;37.50
49627;BME280;35527;54.616;39.786;2022-07-29T14:09:29;99951.78;;;24.82;37.67
49627;BME280;35527;54.616;39.786;2022-07-29T14:12:33;99966.38;;;24.86;38.18
49627;BME280;35527;54.616;39.786;2022-07-29T14:15:37;99969.06;;;25.14;38.44
49627;BME280;35527;54.616;39.786;2022-07-29T14:18:40;99947.50;;;24.99;37.78
49627;BME280;35527;54.616;39.786;2022-07-29T14:21:45;99962.38;;;25.10;38.26
49627;BME280;35527;54.616;39.786;2022-07-29T14:24:48;99934.06;;;24.92;38.08
49627;BME280;35527;54.616;39.786;2022-07-29T14:27:52;99965.31;;;25.07;38.34
49627;BME280;35527;54.616;39.786;2022-07-29T14:30:57;99926.84;;;25.03;39.05
49627;BME280;35527;54.616;39.786;2022-07-29T14:34:01;99934.06;;;25.10;38.25
49627;BME280;35527;54.616;39.786;2022-07-29T14:37:06;99956.22;;;25.09;38.16
49627;BME280;35527;54.616;39.786;2022-07-29T14:40:11;99949.13;;;25.10;37.54
49627;BME280;35527;54.616;39.786;2022-07-29T14:43:14;99930.94;;;24.97;37.66
49627;BME280;35527;54.616;39.786;2022-07-29T14:46:17;99948.03;;;25.03;37.67
49627;BME280;35527;54.616;39.786;2022-07-29T14:49:19;99935.19;;;24.90;37.98
49627;BME280;35527;54.616;39.786;2022-07-29T14:52:28;99944.91;;;24.89;37.88
49627;BME280;35527;54.616;39.786;2022-07-29T14:55:32;99955.56;;;24.80;38.30
49627;BME280;35527;54.616;39.786;2022-07-29T14:58:35;99958.91;;;24.82;38.55
49627;BME280;35527;54.616;39.786;2022-07-29T15:01:39;99952.22;;;24.78;38.39
49627;BME280;35527;54.616;39.786;2022-07-29T15:04:44;99955.13;;;24.57;39.11
49627;BME280;35527;54.616;39.786;2022-07-29T15:08:13;99960.19;;;24.50;38.95
49627;BME280;35527;54.616;39.786;2022-07-29T15:11:18;99958.22;;;24.42;39.91
49627;BME280;35527;54.616;39.786;2022-07-29T15:14:21;99944.34;;;24.31;40.36
49627;BME280;35527;54.616;39.786;2022-07-29T15:17:25;99956.88;;;24.28;40.48
49627;BME280;35527;54.616;39.786;2022-07-29T15:20:28;99946.47;;;24.17;40.69
49627;BME280;35527;54.616;39.786;2022-07-29T15:23:33;99944.81;;;24.16;41.18
49627;BME280;35527;54.616;39.786;2022-07-29T15:26:40;99934.53;;;24.03;40.55
49627;BME280;35527;54.616;39.786;2022-07-29T15:29:46;99944.03;;;23.96;40.83
49627;BME280;35527;54.616;39.786;2022-07-29T15:32:49;99933.63;;;23.85;41.64
49627;BME280;35527;54.616;39.786;2022-07-29T15:35:56;99957.13;;;23.88;41.59
49627;BME280;35527;54.616;39.786;2022-07-29T15:38:59;99952.00;;;23.77;41.55
49627;BME280;35527;54.616;39.786;2022-07-29T15:42:05;99919.44;;;23.57;41.86
49627;BME280;35527;54.616;39.786;2022-07-29T15:45:10;99958.97;;;23.78;42.05
49627;BME280;35527;54.616;39.786;2022-07-29T15:48:17;99957.16;;;23.78;41.79
49627;BME280;35527;54.616;39.786;2022-07-29T15:51:23;99942.25;;;23.68;41.73
49627;BME280;35527;54.616;39.786;2022-07-29T15:54:53;99959.66;;;23.70;41.91
49627;BME280;35527;54.616;39.786;2022-07-29T15:58:17;99963.53;;;23.66;41.59
49627;BME280;35527;54.616;39.786;2022-07-29T16:01:20;99948.94;;;23.52;41.35
49627;BME280;35527;54.616;39.786;2022-07-29T16:04:24;99954.63;;;23.48;41.48
49627;BME280;35527;54.616;39.786;2022-07-29T16:07:28;99967.97;;;23.46;41.30
49627;BME280;35527;54.616;39.786;2022-07-29T16:10:32;99975.50;;;23.41;42.24
49627;BME280;35527;54.616;39.786;2022-07-29T16:13:34;99973.16;;;23.38;42.29
49627;BME280;35527;54.616;39.786;2022-07-29T16:16:38;99961.16;;;23.34;42.98
49627;BME280;35527;54.616;39.786;2022-07-29T16:19:44;99958.97;;;23.29;42.82
49627;BME280;35527;54.616;39.786;2022-07-29T16:22:47;99970.47;;;23.28;43.04
49627;BME280;35527;54.616;39.786;2022-07-29T16:25:50;99963.50;;;23.17;42.97
49627;BME280;35527;54.616;39.786;2022-07-29T16:29:03;99945.56;;;23.02;43.07
49627;BME280;35527;54.616;39.786;2022-07-29T16:32:07;99956.69;;;23.05;43.94
49627;BME280;35527;54.616;39.786;2022-07-29T16:35:12;99968.38;;;23.12;43.71
49627;BME280;35527;54.616;39.786;2022-07-29T16:38:19;99959.56;;;22.92;43.90
49627;BME280;35527;54.616;39.786;2022-07-29T16:41:23;99973.88;;;22.90;44.56
49627;BME280;35527;54.616;39.786;2022-07-29T16:44:25;99963.00;;;22.83;44.78
49627;BME280;35527;54.616;39.786;2022-07-29T16:47:28;99968.81;;;22.77;45.15
49627;BME280;35527;54.616;39.786;2022-07-29T16:50:32;99963.53;;;22.67;45.48